createdAt,value
2018-08-25T00:02:27.384Z,80.99
2018-08-25T00:07:11.346Z,78.11
2018-08-25T00:11:54.745Z,78.33
2018-08-25T00:16:42.551Z,81.77
2018-08-25T00:21:25.797Z,83.52
2018-08-25T00:26:09.209Z,84.90
2018-08-25T00:30:58.818Z,76.25
2018-08-25T00:35:42.153Z,80.35
2018-08-25T00:40:28.689Z,85.68
2018-08-25T00:45:11.948Z,80.83
2018-08-25T00:49:58.805Z,81.07
2018-08-25T00:54:42.147Z,82.27
2018-08-25T00:59:26.679Z,81.81
2018-08-25T01:04:09.961Z,77.73
2018-08-25T01:08:54.463Z,78.90
2018-08-25T01:13:37.787Z,70.70
2018-08-25T01:18:24.748Z,72.37
2018-08-25T01:23:07.960Z,80.15
2018-08-25T01:27:52.973Z,77.12
2018-08-25T01:32:36.440Z,73.37
2018-08-25T01:37:19.834Z,75.71
2018-08-25T01:42:03.346Z,76.74
2018-08-25T01:46:47.665Z,76.03
2018-08-25T01:51:31.062Z,76.63
2018-08-25T01:56:14.455Z,82.86
2018-08-25T02:00:58.977Z,74.56
2018-08-25T02:05:42.277Z,82.59
2018-08-25T02:10:26.759Z,77.33
2018-08-25T02:15:10.124Z,81.78
2018-08-25T02:19:57.161Z,79.10
2018-08-25T02:24:40.496Z,80.80
2018-08-25T02:29:27.488Z,77.90
2018-08-25T02:34:10.950Z,87.20
2018-08-25T02:38:55.334Z,79.82
2018-08-25T02:43:38.604Z,80.32
2018-08-25T02:48:22.163Z,76.43
2018-08-25T02:53:05.474Z,83.01
2018-08-25T02:57:49.996Z,75.97
2018-08-25T03:02:33.379Z,74.64
2018-08-25T03:07:16.718Z,74.35
2018-08-25T03:12:00.055Z,72.47
2018-08-25T03:16:43.516Z,74.87
2018-08-25T03:21:26.952Z,71.09
2018-08-25T03:26:16.275Z,70.17
2018-08-25T03:30:59.658Z,68.38
2018-08-25T03:37:12.292Z,70.87
2018-08-25T03:41:55.701Z,82.90
2018-08-25T03:46:40.116Z,73.96
2018-08-25T03:51:23.530Z,80.87
2018-08-25T03:56:08.013Z,71.98
2018-08-25T04:00:51.398Z,69.09
2018-08-25T04:05:34.824Z,69.40
2018-08-25T04:10:22.106Z,80.15
2018-08-25T04:15:06.861Z,72.15
2018-08-25T04:19:50.264Z,68.06
2018-08-25T04:24:33.730Z,73.96
2018-08-25T04:29:18.162Z,83.16
2018-08-25T04:34:01.517Z,71.49
2018-08-25T04:38:45.649Z,82.57
2018-08-25T04:43:28.990Z,81.06
2018-08-25T04:48:17.225Z,83.41
2018-08-25T04:53:01.002Z,82.02
2018-08-25T04:57:48.245Z,81.26
2018-08-25T05:02:31.718Z,81.13
2018-08-25T05:07:15.313Z,79.93
2018-08-25T05:11:58.685Z,73.88
2018-08-25T05:16:42.302Z,75.18
2018-08-25T05:21:25.969Z,77.90
2018-08-25T05:26:10.434Z,81.29
2018-08-25T05:30:53.781Z,74.08
2018-08-25T05:35:37.293Z,79.90
2018-08-25T05:40:22.244Z,80.69
2018-08-25T05:45:05.656Z,81.18
2018-08-25T05:49:50.220Z,80.36
2018-08-25T05:54:33.573Z,73.30
2018-08-25T05:59:20.876Z,79.41
2018-08-25T06:04:04.293Z,75.67
2018-08-25T06:08:47.871Z,79.32
2018-08-25T06:13:31.150Z,75.23
2018-08-25T06:18:14.661Z,73.42
2018-08-25T06:22:58.075Z,75.46
2018-08-25T06:27:44.962Z,77.43
2018-08-25T06:32:28.381Z,78.22
2018-08-25T06:37:12.253Z,75.51
2018-08-25T06:41:55.534Z,73.48
2018-08-25T06:46:42.591Z,71.48
2018-08-25T06:51:25.897Z,76.84
2018-08-25T06:56:10.512Z,72.98
2018-08-25T07:00:54.650Z,75.49
2018-08-25T07:05:38.049Z,74.33
2018-08-25T07:10:21.435Z,72.78
2018-08-25T07:15:05.698Z,69.41
2018-08-25T07:19:50.026Z,72.41
2018-08-25T07:24:33.358Z,68.54
2018-08-25T07:29:18.019Z,67.50
2018-08-25T07:34:01.397Z,65.85
2018-08-25T07:38:45.225Z,71.31
2018-08-25T07:43:28.720Z,70.97
2018-08-25T07:48:12.276Z,62.79
2018-08-25T07:52:55.610Z,69.79
2018-08-25T07:57:39.278Z,69.37
2018-08-25T08:02:22.692Z,67.33
2018-08-25T08:07:06.300Z,68.44
2018-08-25T08:11:50.051Z,66.62
2018-08-25T08:16:37.253Z,64.01
2018-08-25T08:21:20.641Z,66.66
2018-08-25T08:26:04.307Z,67.48
2018-08-25T08:30:47.968Z,64.48
2018-08-25T08:35:31.865Z,69.36
2018-08-25T08:40:15.362Z,69.59
2018-08-25T08:44:58.690Z,67.70
2018-08-25T08:49:46.817Z,66.66
2018-08-25T08:54:26.731Z,69.93
2018-08-25T08:59:10.359Z,70.63
2018-08-25T09:03:54.013Z,68.61
2018-08-25T09:08:37.680Z,69.09
2018-08-25T09:13:21.080Z,69.22
2018-08-25T09:18:05.687Z,64.80
2018-08-25T09:22:49.147Z,61.89
2018-08-25T09:27:32.820Z,61.69
2018-08-25T09:32:16.176Z,60.12
2018-08-25T09:36:59.711Z,60.70
2018-08-25T09:41:43.010Z,59.91
2018-08-25T09:46:27.541Z,58.96
2018-08-25T09:51:11.048Z,58.60
2018-08-25T09:55:54.723Z,57.21
2018-08-25T10:00:38.535Z,60.43
2018-08-25T10:05:23.166Z,57.76
2018-08-25T10:10:07.707Z,59.03
2018-08-25T10:14:51.097Z,58.15
2018-08-25T10:19:35.551Z,57.80
2018-08-25T10:24:18.990Z,54.42
2018-08-25T10:29:02.629Z,55.31
2018-08-25T10:33:45.932Z,53.89
2018-08-25T10:38:31.349Z,52.65
2018-08-25T10:43:14.617Z,54.41
2018-08-25T10:47:58.211Z,51.78
2018-08-25T10:52:42.058Z,51.89
2018-08-25T10:57:25.595Z,49.40
2018-08-25T11:02:16.816Z,48.56
2018-08-25T11:07:00.209Z,50.52
2018-08-25T11:11:43.647Z,51.65
2018-08-25T11:16:27.305Z,52.17
2018-08-25T11:21:10.694Z,49.60
2018-08-25T11:25:54.337Z,49.59
2018-08-25T11:30:38.121Z,52.16
2018-08-25T11:35:22.994Z,48.31
2018-08-25T11:40:06.490Z,50.80
2018-08-25T11:44:49.951Z,47.42
2018-08-25T11:49:33.159Z,49.12
2018-08-25T11:54:16.530Z,51.24
2018-08-25T11:59:00.158Z,52.96
2018-08-25T12:03:43.697Z,52.21
2018-08-25T12:08:27.202Z,52.75
2018-08-25T12:13:10.682Z,49.78
2018-08-25T12:17:54.198Z,49.63
2018-08-25T12:22:37.564Z,51.78
2018-08-25T12:27:21.081Z,52.89
2018-08-25T12:32:04.470Z,53.52
2018-08-25T12:36:47.834Z,53.87
2018-08-25T12:41:31.701Z,53.30
2018-08-25T12:46:15.293Z,54.32
2018-08-25T12:50:58.638Z,55.63
2018-08-25T12:55:41.963Z,54.07
2018-08-25T13:00:25.412Z,55.02
2018-08-25T13:05:08.980Z,54.56
2018-08-25T13:09:52.440Z,55.29
2018-08-25T13:14:35.951Z,57.47
2018-08-25T13:19:19.184Z,58.47
2018-08-25T13:24:02.536Z,57.95
2018-08-25T13:28:47.130Z,56.54
2018-08-25T13:33:30.542Z,55.62
2018-08-25T13:38:13.850Z,55.69
2018-08-25T13:42:57.163Z,56.24
2018-08-25T13:47:40.771Z,56.10
2018-08-25T13:52:24.104Z,54.74
2018-08-25T13:57:07.455Z,55.16
2018-08-25T14:01:50.908Z,53.84
2018-08-25T14:06:37.900Z,53.40
2018-08-25T14:11:21.322Z,57.82
2018-08-25T14:16:05.778Z,55.85
2018-08-25T14:20:49.019Z,55.84
2018-08-25T14:25:38.662Z,56.17
2018-08-25T14:30:22.534Z,56.96
2018-08-25T14:35:07.001Z,57.14
2018-08-25T14:39:50.429Z,59.15
2018-08-25T14:44:35.054Z,57.73
2018-08-25T14:49:18.529Z,59.12
2018-08-25T14:54:01.970Z,59.21
2018-08-25T14:58:49.162Z,60.65
2018-08-25T15:03:37.571Z,58.67
2018-08-25T15:08:24.606Z,60.04
2018-08-25T15:13:07.972Z,59.38
2018-08-25T15:17:52.268Z,59.16
2018-08-25T15:22:35.714Z,60.07
2018-08-25T15:27:20.315Z,61.26
2018-08-25T15:32:03.597Z,59.69
2018-08-25T15:36:47.258Z,61.28
2018-08-25T15:41:30.643Z,60.83
2018-08-25T15:46:14.084Z,60.03
2018-08-25T15:50:57.193Z,58.10
2018-08-25T15:55:41.590Z,58.74
2018-08-25T16:00:24.928Z,60.19
2018-08-25T16:05:12.059Z,61.60
2018-08-25T16:09:55.495Z,60.66
2018-08-25T16:14:39.027Z,61.53
2018-08-25T16:19:22.564Z,59.75
2018-08-25T16:24:05.879Z,61.68
2018-08-25T16:28:52.947Z,62.41
2018-08-25T16:33:36.319Z,61.62
2018-08-25T16:38:19.861Z,62.45
2018-08-25T16:43:03.150Z,63.69
2018-08-25T16:47:46.638Z,62.99
2018-08-25T16:52:29.956Z,64.93
2018-08-25T16:57:13.970Z,63.57
2018-08-25T17:01:57.479Z,65.26
2018-08-25T17:06:41.106Z,65.94
2018-08-25T17:11:24.876Z,65.78
2018-08-25T17:16:08.596Z,63.95
2018-08-25T17:20:51.955Z,65.94
2018-08-25T17:25:35.306Z,65.41
2018-08-25T17:30:19.211Z,65.76
2018-08-25T17:35:02.676Z,64.69
2018-08-25T17:39:46.207Z,64.92
2018-08-25T17:44:29.718Z,69.66
2018-08-25T17:49:13.370Z,68.36
2018-08-25T17:53:56.782Z,66.65
2018-08-25T17:58:40.281Z,65.89
2018-08-25T18:03:23.721Z,65.61
2018-08-25T18:08:07.414Z,67.00
2018-08-25T18:12:50.788Z,67.52
2018-08-25T18:17:34.671Z,66.83
2018-08-25T18:22:18.508Z,66.63
2018-08-25T18:27:02.196Z,67.62
2018-08-25T18:31:45.631Z,66.92
2018-08-25T18:36:29.074Z,72.40
2018-08-25T18:41:12.594Z,69.10
2018-08-25T18:45:59.100Z,68.12
2018-08-25T18:50:42.463Z,67.43
2018-08-25T18:55:26.030Z,71.95
2018-08-25T19:00:09.540Z,68.44
2018-08-25T19:04:53.035Z,67.78
2018-08-25T19:09:36.462Z,68.73
2018-08-25T19:14:20.165Z,67.44
2018-08-25T19:19:03.395Z,72.10
2018-08-25T19:23:46.887Z,73.95
2018-08-25T19:28:30.243Z,69.96
2018-08-25T19:33:13.619Z,68.34
2018-08-25T19:37:57.093Z,74.98
2018-08-25T19:42:40.485Z,72.04
2018-08-25T19:47:25.090Z,71.63
2018-08-25T19:52:08.487Z,74.91
2018-08-25T19:56:52.230Z,70.32
2018-08-25T20:01:35.711Z,68.72
2018-08-25T20:06:22.587Z,72.14
2018-08-25T20:11:05.882Z,70.83
2018-08-25T20:15:52.960Z,70.00
2018-08-25T20:20:36.693Z,70.54
2018-08-25T20:25:20.243Z,76.15
2018-08-25T20:30:03.717Z,77.52
2018-08-25T20:34:47.118Z,70.87
2018-08-25T20:39:30.619Z,69.51
2018-08-25T20:44:15.058Z,70.55
2018-08-25T20:48:58.436Z,73.05
2018-08-25T20:53:41.849Z,71.08
2018-08-25T20:58:25.283Z,75.06
2018-08-25T21:03:08.707Z,71.30
2018-08-25T21:07:53.067Z,71.16
2018-08-25T21:12:36.602Z,70.45
2018-08-25T21:17:20.209Z,72.21
2018-08-25T21:22:03.661Z,78.76
2018-08-25T21:26:47.009Z,77.07
2018-08-25T21:31:30.469Z,72.62
2018-08-25T21:36:13.977Z,73.80
2018-08-25T21:40:57.374Z,79.80
2018-08-25T21:45:44.379Z,73.42
2018-08-25T21:50:27.730Z,72.98
2018-08-25T21:55:14.554Z,83.35
2018-08-25T21:59:57.994Z,82.30
2018-08-25T22:04:41.553Z,76.33
2018-08-25T22:09:24.923Z,74.61
2018-08-25T22:14:09.281Z,74.50
2018-08-25T22:18:52.698Z,73.60
2018-08-25T22:23:37.118Z,77.65
2018-08-25T22:28:20.465Z,74.60
2018-08-25T22:33:03.959Z,76.62
2018-08-25T22:37:49.096Z,75.99
2018-08-25T22:42:32.233Z,83.23
2018-08-25T22:47:16.665Z,77.17
2018-08-25T22:51:59.906Z,76.07
2018-08-25T22:56:43.473Z,77.04
2018-08-25T23:01:26.892Z,77.06
2018-08-25T23:06:11.149Z,78.26
2018-08-25T23:10:54.573Z,77.59
2018-08-25T23:15:38.848Z,77.39
2018-08-25T23:20:22.259Z,75.86
2018-08-25T23:25:06.547Z,75.51
2018-08-25T23:29:49.886Z,75.76
2018-08-25T23:34:34.381Z,74.10
2018-08-25T23:39:17.756Z,71.69
2018-08-25T23:44:05.058Z,67.72
2018-08-25T23:48:48.441Z,70.67
2018-08-25T23:53:31.930Z,67.73
2018-08-25T23:58:15.326Z,67.45
